Time;durP1;ratioP1;P1;durP2;ratioP2;P2;SDS_P1;SDS_P2;PMS_P1;PMS_P2;Temp;Humidity;BMP_temperature;BMP_pressure;BME280_temperature;BME280_humidity;BME280_pressure;Samples;Min_cycle;Max_cycle;Signal;HPM_P1;HPM_P2
2023/03/24 00:00:19;;;;;;;3.17;1.23;;;12.20;99.90;;;;;;5051242;28;20512;-72
2023/03/24 00:02:47;;;;;;;2.00;1.63;;;12.30;99.90;;;;;;5050063;28;20451;-72
2023/03/24 00:05:16;;;;;;;2.40;1.83;;;12.20;99.90;;;;;;5050154;28;20493;-72
2023/03/24 00:07:44;;;;;;;2.33;1.50;;;12.20;99.90;;;;;;5050460;28;20474;-72
2023/03/24 00:10:13;;;;;;;2.20;1.63;;;12.20;99.90;;;;;;5053697;28;20513;-72
2023/03/24 00:12:41;;;;;;;1.90;1.53;;;12.30;99.90;;;;;;5053712;28;20948;-72
2023/03/24 00:15:11;;;;;;;2.93;1.90;;;12.40;99.90;;;;;;5054021;28;20942;-72
2023/03/24 00:17:39;;;;;;;3.53;1.80;;;12.40;99.90;;;;;;5054004;28;20790;-72
2023/03/24 00:20:12;;;;;;;1.33;1.17;;;12.40;99.90;;;;;;5052783;28;20452;-72
2023/03/24 00:22:41;;;;;;;2.60;1.93;;;12.30;99.90;;;;;;5055629;28;20424;-72
2023/03/24 00:25:10;;;;;;;2.00;1.80;;;12.20;99.90;;;;;;5056327;28;20451;-72
2023/03/24 00:27:37;;;;;;;2.90;1.10;;;12.20;99.90;;;;;;5055648;28;20433;-72
2023/03/24 00:30:10;;;;;;;3.87;2.13;;;12.20;99.90;;;;;;5053459;28;20487;-72
2023/03/24 00:32:37;;;;;;;1.13;0.93;;;12.30;99.90;;;;;;5054024;28;20426;-72
2023/03/24 00:35:05;;;;;;;1.43;1.13;;;12.30;99.90;;;;;;5062205;28;20532;-72
2023/03/24 00:37:33;;;;;;;2.10;1.47;;;12.30;99.90;;;;;;5055178;28;20475;-72
2023/03/24 00:40:00;;;;;;;2.13;1.10;;;12.40;99.90;;;;;;5052974;28;20967;-72
2023/03/24 00:42:29;;;;;;;1.77;1.37;;;12.40;99.90;;;;;;5053147;28;20425;-72
2023/03/24 00:44:57;;;;;;;5.20;1.47;;;12.30;99.90;;;;;;5067221;28;20504;-72
2023/03/24 00:47:25;;;;;;;1.97;1.33;;;12.40;99.90;;;;;;5053396;28;20558;-72
2023/03/24 00:49:53;;;;;;;2.00;1.23;;;12.40;99.90;;;;;;5053383;28;20486;-72
2023/03/24 00:52:25;;;;;;;1.40;1.30;;;12.40;99.90;;;;;;5052898;28;20494;-72
2023/03/24 00:54:57;;;;;;;1.40;0.90;;;12.30;99.90;;;;;;5052868;28;20574;-72
2023/03/24 00:57:24;;;;;;;3.13;1.63;;;12.40;99.90;;;;;;5052494;28;20980;-72
2023/03/24 00:59:54;;;;;;;3.93;1.50;;;12.40;99.90;;;;;;5053037;28;20448;-71
2023/03/24 01:02:24;;;;;;;1.40;1.10;;;12.50;99.90;;;;;;5053019;28;20551;-72
2023/03/24 01:04:53;;;;;;;1.80;0.93;;;12.50;99.90;;;;;;5052619;28;20543;-72
2023/03/24 01:07:21;;;;;;;4.30;2.20;;;12.40;99.90;;;;;;5052317;28;20474;-72
2023/03/24 01:09:56;;;;;;;1.70;1.37;;;12.40;99.90;;;;;;5053085;28;20443;-72
2023/03/24 01:12:23;;;;;;;1.40;1.03;;;12.40;99.90;;;;;;5053337;28;20534;-72
2023/03/24 01:14:51;;;;;;;1.77;1.30;;;12.50;99.90;;;;;;5052437;28;20479;-72
2023/03/24 01:17:21;;;;;;;1.77;1.27;;;12.50;99.90;;;;;;5052239;28;20470;-72
2023/03/24 01:19:48;;;;;;;1.77;1.00;;;12.60;99.90;;;;;;5052711;28;20554;-72
2023/03/24 01:22:19;;;;;;;3.40;1.30;;;12.70;99.90;;;;;;5052884;28;20451;-72
2023/03/24 01:24:46;;;;;;;1.40;1.10;;;12.60;99.90;;;;;;5051665;28;20919;-72
2023/03/24 01:27:14;;;;;;;1.10;0.90;;;12.60;99.90;;;;;;5053274;28;20524;-72
2023/03/24 01:29:42;;;;;;;1.90;1.30;;;12.60;99.90;;;;;;5052317;28;20444;-72
2023/03/24 01:32:09;;;;;;;3.60;1.47;;;12.60;99.90;;;;;;5052254;28;20982;-72
2023/03/24 01:34:37;;;;;;;1.63;1.37;;;12.70;99.90;;;;;;5052429;28;20486;-72
2023/03/24 01:37:05;;;;;;;1.60;1.50;;;12.70;99.90;;;;;;5052373;28;20446;-72
2023/03/24 01:39:32;;;;;;;2.37;1.80;;;12.60;99.90;;;;;;5058391;28;20443;-72
2023/03/24 01:42:00;;;;;;;2.20;1.90;;;12.60;99.90;;;;;;5059829;28;20440;-72
2023/03/24 01:44:32;;;;;;;1.60;1.40;;;12.50;99.90;;;;;;5052595;28;20440;-72
2023/03/24 01:47:00;;;;;;;1.70;1.10;;;12.40;99.90;;;;;;5053087;28;20444;-72
2023/03/24 01:49:33;;;;;;;4.03;1.70;;;12.50;99.90;;;;;;5058289;28;20439;-71
2023/03/24 01:52:04;;;;;;;2.80;1.27;;;12.40;99.90;;;;;;5056951;28;20440;-71
2023/03/24 01:54:36;;;;;;;2.60;1.70;;;12.50;99.90;;;;;;5051711;28;20450;-71
2023/03/24 01:57:06;;;;;;;2.47;1.77;;;12.50;99.90;;;;;;5051848;28;20475;-71
2023/03/24 01:59:37;;;;;;;2.67;1.80;;;12.40;99.90;;;;;;5051970;28;20452;-71
2023/03/24 02:02:06;;;;;;;1.20;1.10;;;12.50;99.90;;;;;;5051987;28;20463;-71
2023/03/24 02:04:37;;;;;;;1.77;1.47;;;12.60;99.90;;;;;;5053912;28;20444;-71
2023/03/24 02:07:12;;;;;;;1.40;1.00;;;12.60;99.90;;;;;;5052090;28;20474;-72
2023/03/24 02:09:40;;;;;;;1.87;1.53;;;12.50;99.90;;;;;;5051494;28;20917;-72
2023/03/24 02:12:07;;;;;;;1.83;1.70;;;12.60;99.90;;;;;;5051505;28;20517;-72
2023/03/24 02:14:34;;;;;;;1.80;1.27;;;12.70;99.90;;;;;;5051888;28;20562;-72
2023/03/24 02:17:29;;;;;;;1.27;1.17;;;12.70;99.90;;;;;;5051519;28;20482;-72
2023/03/24 02:20:25;;;;;;;2.23;1.40;;;12.60;99.90;;;;;;5051413;28;20459;-72
2023/03/24 02:23:28;;;;;;;1.70;1.60;;;12.60;99.90;;;;;;5051547;28;20432;-72
2023/03/24 02:26:30;;;;;;;2.60;1.57;;;12.60;99.90;;;;;;5056852;28;20394;-72
2023/03/24 02:29:14;;;;;;;4.20;1.90;;;12.50;99.90;;;;;;5053080;28;20428;-72
2023/03/24 02:32:20;;;;;;;2.93;2.03;;;12.40;99.90;;;;;;5051010;28;20694;-72
2023/03/24 02:35:18;;;;;;;1.93;1.40;;;12.50;99.90;;;;;;5059997;28;20464;-71
2023/03/24 02:38:15;;;;;;;3.73;1.00;;;12.50;99.90;;;;;;5052819;28;20542;-71
2023/03/24 02:40:49;;;;;;;1.13;1.00;;;12.50;99.90;;;;;;5052027;28;20424;-71
2023/03/24 02:43:36;;;;;;;1.47;1.27;;;12.50;99.90;;;;;;5051155;28;20436;-71
2023/03/24 02:46:12;;;;;;;1.47;1.23;;;12.40;99.90;;;;;;5051102;28;20485;-71
2023/03/24 02:48:54;;;;;;;3.57;2.23;;;12.40;99.90;;;;;;5051790;28;20424;-71
2023/03/24 02:51:25;;;;;;;2.23;1.90;;;12.40;99.90;;;;;;5051091;28;20545;-71
2023/03/24 02:54:00;;;;;;;2.73;2.00;;;12.40;99.90;;;;;;5050792;28;20432;-71
2023/03/24 02:56:36;;;;;;;1.90;1.40;;;12.40;99.90;;;;;;5050654;28;20478;-71
2023/03/24 02:59:05;;;;;;;2.33;2.13;;;12.40;99.90;;;;;;5050786;28;20497;-71
2023/03/24 03:01:40;;;;;;;2.30;1.80;;;12.40;99.90;;;;;;5050762;28;20466;-71
2023/03/24 03:04:11;;;;;;;2.47;1.97;;;12.50;99.90;;;;;;5054092;28;20778;-72
2023/03/24 03:06:40;;;;;;;1.60;1.20;;;12.60;99.90;;;;;;5057432;28;20451;-72
2023/03/24 03:09:11;;;;;;;1.60;1.50;;;12.50;99.90;;;;;;5051355;28;20526;-72
2023/03/24 03:11:42;;;;;;;2.00;1.57;;;12.60;99.90;;;;;;5050516;28;20490;-71
2023/03/24 03:14:13;;;;;;;1.90;1.40;;;12.60;99.90;;;;;;5050732;28;20486;-71
2023/03/24 03:16:46;;;;;;;2.10;1.80;;;12.70;99.90;;;;;;5050295;28;20483;-71
2023/03/24 03:19:17;;;;;;;2.27;2.07;;;12.70;99.90;;;;;;5050724;28;20439;-71
2023/03/24 03:21:46;;;;;;;2.13;1.60;;;12.70;99.90;;;;;;5050715;28;20543;-71
2023/03/24 03:24:25;;;;;;;1.60;1.50;;;12.70;99.90;;;;;;5050472;28;20701;-71
2023/03/24 03:26:56;;;;;;;3.97;1.83;;;12.80;99.90;;;;;;5050428;28;20463;-71
2023/03/24 03:29:26;;;;;;;2.30;2.10;;;12.90;99.90;;;;;;5050259;28;20432;-71
2023/03/24 03:31:59;;;;;;;2.03;1.10;;;12.90;99.90;;;;;;5065985;28;20428;-72
2023/03/24 03:34:34;;;;;;;2.50;1.73;;;13.00;99.90;;;;;;5051530;28;20451;-72
2023/03/24 03:37:06;;;;;;;3.17;1.70;;;13.00;99.90;;;;;;5050207;28;20469;-71
2023/03/24 03:39:40;;;;;;;2.33;2.00;;;13.10;99.90;;;;;;5050316;28;20485;-71
2023/03/24 03:42:09;;;;;;;3.20;2.40;;;13.10;99.90;;;;;;5050643;28;21132;-71
2023/03/24 03:44:36;;;;;;;2.03;1.67;;;13.20;99.90;;;;;;5054745;28;20455;-71
2023/03/24 03:47:03;;;;;;;2.90;1.70;;;13.20;99.90;;;;;;5057027;28;20483;-71
2023/03/24 03:49:31;;;;;;;2.13;1.87;;;13.40;99.90;;;;;;5054385;28;20470;-71
2023/03/24 03:51:58;;;;;;;3.13;1.80;;;13.40;99.90;;;;;;5054128;28;21010;-71
2023/03/24 03:54:30;;;;;;;2.03;1.83;;;13.40;99.90;;;;;;5054120;28;20500;-71
2023/03/24 03:56:58;;;;;;;2.10;1.73;;;13.40;99.90;;;;;;5054262;28;20567;-72
2023/03/24 03:59:29;;;;;;;2.23;1.90;;;13.40;99.90;;;;;;5054550;28;20459;-71
2023/03/24 04:01:57;;;;;;;3.70;2.00;;;13.50;99.90;;;;;;5054349;28;20443;-72
2023/03/24 04:04:58;;;;;;;7.43;2.00;;;13.50;99.90;;;;;;5053843;28;21003;-71
2023/03/24 04:07:33;;;;;;;2.93;2.30;;;13.50;99.90;;;;;;5053682;28;20520;-71
2023/03/24 04:10:08;;;;;;;2.00;1.33;;;13.50;99.90;;;;;;5054305;28;20423;-72
2023/03/24 04:12:57;;;;;;;2.33;1.97;;;13.50;99.90;;;;;;5054315;28;20961;-71
2023/03/24 04:15:39;;;;;;;4.73;1.23;;;13.50;99.90;;;;;;5054022;28;20550;-71
2023/03/24 04:18:26;;;;;;;2.53;1.80;;;13.50;99.90;;;;;;5055352;28;20489;-72
2023/03/24 04:21:07;;;;;;;2.30;1.93;;;13.50;99.90;;;;;;5059940;28;20514;-71
2023/03/24 04:23:48;;;;;;;3.63;1.87;;;13.50;99.90;;;;;;5054217;28;20427;-71
2023/03/24 04:26:25;;;;;;;3.40;1.93;;;13.40;99.90;;;;;;5058474;28;20475;-72
2023/03/24 04:29:02;;;;;;;2.53;2.17;;;13.30;99.90;;;;;;5068045;28;20510;-71
2023/03/24 04:31:36;;;;;;;2.50;2.30;;;13.20;99.90;;;;;;5053734;28;20432;-74
2023/03/24 04:34:08;;;;;;;1.70;1.50;;;13.10;99.90;;;;;;5053611;28;20432;-71
2023/03/24 04:36:41;;;;;;;2.47;2.20;;;13.10;99.90;;;;;;5053309;28;20920;-72
2023/03/24 04:39:12;;;;;;;3.77;1.47;;;13.10;99.90;;;;;;5052622;28;20806;-72
2023/03/24 04:41:41;;;;;;;2.23;2.03;;;12.90;99.90;;;;;;5051897;28;20432;-72
2023/03/24 04:44:10;;;;;;;1.50;1.27;;;12.90;99.90;;;;;;5052238;28;20819;-73
2023/03/24 04:46:39;;;;;;;1.30;1.17;;;12.90;99.90;;;;;;5052168;28;20455;-72
2023/03/24 04:49:06;;;;;;;2.10;1.90;;;12.80;99.90;;;;;;5052193;28;20454;-71
2023/03/24 04:51:34;;;;;;;2.07;1.80;;;12.90;99.90;;;;;;5069468;28;20454;-72
2023/03/24 04:54:01;;;;;;;1.90;1.50;;;12.90;99.90;;;;;;5052056;28;20455;-71
2023/03/24 04:56:33;;;;;;;2.50;1.73;;;12.90;99.90;;;;;;5051967;28;20510;-71
2023/03/24 04:59:00;;;;;;;8.03;1.97;;;13.00;99.90;;;;;;5051755;28;20454;-71
2023/03/24 05:01:29;;;;;;;2.47;2.27;;;13.00;99.90;;;;;;5051816;28;20454;-72
2023/03/24 05:03:58;;;;;;;2.47;1.77;;;13.00;99.90;;;;;;5051847;28;20862;-72
2023/03/24 05:06:29;;;;;;;1.20;1.00;;;13.00;99.90;;;;;;5052043;28;20459;-72
2023/03/24 05:08:59;;;;;;;2.30;2.10;;;13.00;99.90;;;;;;5051989;28;20541;-72
2023/03/24 05:11:27;;;;;;;2.43;2.23;;;13.00;99.90;;;;;;5052003;28;20443;-72
2023/03/24 05:13:54;;;;;;;2.60;1.50;;;13.00;99.90;;;;;;5055786;28;20447;-72
2023/03/24 05:16:21;;;;;;;2.30;1.80;;;13.00;99.90;;;;;;5064062;28;20500;-72
2023/03/24 05:18:48;;;;;;;2.63;2.13;;;13.00;99.90;;;;;;5052948;28;20966;-72
2023/03/24 05:21:19;;;;;;;1.90;1.50;;;13.10;99.90;;;;;;5053992;28;20444;-72
2023/03/24 05:23:46;;;;;;;3.30;1.77;;;13.10;99.90;;;;;;5069858;28;20442;-73
2023/03/24 05:26:13;;;;;;;2.73;1.60;;;13.10;99.90;;;;;;5074507;28;20463;-73
2023/03/24 05:28:40;;;;;;;3.30;2.20;;;13.10;99.90;;;;;;5041053;28;20464;-72
2023/03/24 05:31:08;;;;;;;5.93;2.40;;;13.10;99.90;;;;;;5052667;28;20475;-72
2023/03/24 05:33:35;;;;;;;2.73;2.00;;;13.20;99.90;;;;;;5055571;28;20466;-72
2023/03/24 05:36:03;;;;;;;2.37;1.93;;;13.20;99.90;;;;;;5057042;28;20500;-73
2023/03/24 05:38:31;;;;;;;1.43;1.30;;;13.10;99.90;;;;;;5012823;28;1135476;-72
2023/03/24 05:40:59;;;;;;;1.40;1.10;;;13.00;99.90;;;;;;5052537;28;20527;-72
2023/03/24 05:43:26;;;;;;;1.50;0.97;;;12.80;99.90;;;;;;5052532;28;20443;-72
2023/03/24 05:45:56;;;;;;;6.70;1.40;;;12.80;99.90;;;;;;5052676;28;20539;-72
2023/03/24 05:48:23;;;;;;;2.60;1.73;;;12.70;99.90;;;;;;5052055;28;20443;-72
2023/03/24 05:50:52;;;;;;;1.60;1.40;;;12.70;99.90;;;;;;5052106;28;20531;-72
2023/03/24 05:53:21;;;;;;;3.10;1.20;;;12.60;99.90;;;;;;5052090;28;20538;-72
2023/03/24 05:55:52;;;;;;;2.00;1.40;;;12.50;99.90;;;;;;5052063;28;20519;-72
2023/03/24 05:58:20;;;;;;;2.37;2.13;;;12.60;99.90;;;;;;5052122;28;20429;-72
2023/03/24 06:00:47;;;;;;;2.10;1.50;;;12.60;99.90;;;;;;5052239;28;20479;-73
2023/03/24 06:03:15;;;;;;;1.90;1.70;;;12.50;99.90;;;;;;5052327;28;20479;-72
2023/03/24 06:05:44;;;;;;;1.43;1.20;;;12.50;99.90;;;;;;5051215;28;20448;-73
2023/03/24 06:08:13;;;;;;;1.77;1.63;;;12.40;99.90;;;;;;5051265;28;20474;-73
2023/03/24 06:10:40;;;;;;;1.80;1.37;;;12.50;99.90;;;;;;5051800;28;20828;-72
2023/03/24 06:13:08;;;;;;;1.67;1.50;;;12.40;99.90;;;;;;5051522;28;20435;-72
2023/03/24 06:15:38;;;;;;;2.23;2.03;;;12.20;99.90;;;;;;5051447;28;20882;-72
2023/03/24 06:18:05;;;;;;;4.13;2.07;;;12.10;99.90;;;;;;5051682;28;20463;-72
2023/03/24 06:20:32;;;;;;;2.93;2.30;;;12.10;99.90;;;;;;5056074;28;20466;-72
2023/03/24 06:22:59;;;;;;;2.30;1.67;;;12.10;99.90;;;;;;5060002;28;20799;-72
2023/03/24 06:25:27;;;;;;;3.40;2.30;;;12.10;99.90;;;;;;5051733;28;21083;-72
2023/03/24 06:27:54;;;;;;;2.10;1.70;;;12.10;99.90;;;;;;5051496;28;20487;-72
2023/03/24 06:30:23;;;;;;;7.23;1.87;;;12.20;99.90;;;;;;5051440;28;20567;-72
2023/03/24 06:32:50;;;;;;;2.03;1.80;;;12.00;99.90;;;;;;5051536;28;20479;-72
2023/03/24 06:35:17;;;;;;;2.77;2.03;;;11.90;99.90;;;;;;5051645;28;20510;-72
2023/03/24 06:37:44;;;;;;;3.67;2.00;;;11.70;99.90;;;;;;5051094;28;20501;-72
2023/03/24 06:40:16;;;;;;;2.37;1.73;;;11.80;99.90;;;;;;5052534;28;20448;-73
2023/03/24 06:42:43;;;;;;;6.77;3.87;;;11.70;99.90;;;;;;5052318;28;20547;-72
2023/03/24 06:45:11;;;;;;;3.50;2.13;;;11.70;99.90;;;;;;5051360;28;20443;-71
2023/03/24 06:47:39;;;;;;;2.80;2.00;;;11.80;99.90;;;;;;5051245;28;20499;-71
2023/03/24 06:50:07;;;;;;;5.03;2.03;;;11.80;99.90;;;;;;5051781;28;20538;-72
2023/03/24 06:52:35;;;;;;;4.03;2.03;;;11.90;99.90;;;;;;5049792;28;20498;-72
2023/03/24 06:55:02;;;;;;;2.33;2.13;;;12.00;99.90;;;;;;5050865;28;20501;-72
2023/03/24 06:57:30;;;;;;;2.40;1.93;;;12.20;99.90;;;;;;5031536;28;20482;-72
2023/03/24 06:59:57;;;;;;;2.87;1.60;;;12.40;99.90;;;;;;5051766;28;20478;-72
2023/03/24 07:02:24;;;;;;;10.90;1.63;;;12.60;99.90;;;;;;5051092;28;20483;-72
2023/03/24 07:04:54;;;;;;;2.53;1.43;;;12.80;99.90;;;;;;5051806;28;20439;-72
2023/03/24 07:07:23;;;;;;;4.40;1.90;;;13.00;99.90;;;;;;5051898;28;20513;-73
2023/03/24 07:09:50;;;;;;;11.80;1.80;;;13.30;99.90;;;;;;5055729;28;20450;-72
2023/03/24 07:12:17;;;;;;;3.53;2.97;;;13.20;99.90;;;;;;5066056;28;20450;-72
2023/03/24 07:14:44;;;;;;;2.27;1.60;;;13.10;99.90;;;;;;5056697;28;20514;-71
2023/03/24 07:17:11;;;;;;;2.23;1.30;;;13.20;99.90;;;;;;5060364;28;20544;-72
2023/03/24 07:19:38;;;;;;;5.00;1.37;;;13.40;99.90;;;;;;5055688;28;20482;-73
2023/03/24 07:22:07;;;;;;;7.33;1.80;;;13.50;99.90;;;;;;5051118;28;20471;-72
2023/03/24 07:24:34;;;;;;;5.73;2.07;;;13.80;99.90;;;;;;5050493;28;20477;-73
2023/03/24 07:27:02;;;;;;;2.40;1.37;;;13.60;99.90;;;;;;5050290;28;20463;-73
2023/03/24 07:29:31;;;;;;;1.73;1.23;;;13.30;99.90;;;;;;5031136;28;20531;-72
2023/03/24 07:31:59;;;;;;;1.93;1.50;;;13.30;99.90;;;;;;5050130;28;20501;-72
2023/03/24 07:34:29;;;;;;;2.23;1.60;;;13.20;99.90;;;;;;5050582;28;20451;-73
2023/03/24 07:36:56;;;;;;;2.30;1.37;;;13.00;99.90;;;;;;5049909;28;21046;-72
2023/03/24 07:39:24;;;;;;;2.13;1.23;;;12.90;99.90;;;;;;5050023;28;20736;-72
2023/03/24 07:41:52;;;;;;;4.80;1.87;;;12.80;99.90;;;;;;5049489;28;20521;-72
2023/03/24 07:44:19;;;;;;;5.20;1.60;;;12.70;99.90;;;;;;5050459;28;20454;-73
2023/03/24 07:46:46;;;;;;;3.23;1.57;;;12.90;99.90;;;;;;5049973;28;20854;-73
2023/03/24 07:49:13;;;;;;;3.67;1.87;;;13.30;99.90;;;;;;5049000;28;20948;-73
2023/03/24 07:51:40;;;;;;;4.27;1.90;;;13.60;99.90;;;;;;5049931;28;20526;-73
2023/03/24 07:54:07;;;;;;;2.93;1.50;;;13.70;99.90;;;;;;5049584;28;20523;-76
2023/03/24 07:56:36;;;;;;;8.27;1.80;;;13.80;99.90;;;;;;5050005;28;21033;-73
2023/03/24 07:59:03;;;;;;;4.67;1.53;;;14.10;99.90;;;;;;5050157;28;20482;-73
2023/03/24 08:01:30;;;;;;;2.57;1.17;;;14.60;99.90;;;;;;5049678;28;20443;-73
2023/03/24 08:03:57;;;;;;;2.20;1.00;;;15.00;99.90;;;;;;5049724;28;20527;-72
2023/03/24 08:06:24;;;;;;;1.60;1.13;;;14.80;99.90;;;;;;5050520;28;20491;-72
2023/03/24 08:08:51;;;;;;;8.17;1.60;;;14.40;99.90;;;;;;5050483;28;20516;-73
2023/03/24 08:11:18;;;;;;;5.50;1.40;;;14.40;99.90;;;;;;5050076;28;20831;-72
2023/03/24 08:13:48;;;;;;;9.73;1.73;;;14.40;99.90;;;;;;5057439;28;20475;-72
2023/03/24 08:16:15;;;;;;;5.63;1.80;;;14.50;99.90;;;;;;5063994;28;20506;-72
2023/03/24 08:18:42;;;;;;;2.90;1.20;;;14.80;99.90;;;;;;5015065;28;20523;-73
2023/03/24 08:21:08;;;;;;;2.50;1.90;;;15.10;99.90;;;;;;5050363;28;20486;-72
2023/03/24 08:23:36;;;;;;;7.07;1.93;;;15.60;99.90;;;;;;5049839;28;20523;-72
2023/03/24 08:26:03;;;;;;;4.00;1.50;;;16.10;99.90;;;;;;5050739;28;20454;-73
2023/03/24 08:28:30;;;;;;;2.63;1.30;;;16.00;99.90;;;;;;5050914;28;20990;-73
2023/03/24 08:30:58;;;;;;;3.50;1.60;;;15.90;99.90;;;;;;5053681;28;20530;-73
2023/03/24 08:33:25;;;;;;;4.60;1.77;;;16.20;99.90;;;;;;5052967;28;20479;-73
2023/03/24 08:35:56;;;;;;;2.70;1.73;;;17.20;99.90;;;;;;5053529;28;20439;-73
2023/03/24 08:38:29;;;;;;;2.23;1.20;;;18.00;99.90;;;;;;5053593;28;20570;-73
2023/03/24 08:40:57;;;;;;;5.97;1.70;;;18.00;99.90;;;;;;5053192;28;20849;-73
2023/03/24 08:43:24;;;;;;;2.77;1.70;;;17.20;99.90;;;;;;5053584;28;20462;-73
2023/03/24 08:45:52;;;;;;;4.50;1.33;;;17.70;99.90;;;;;;5053299;28;20959;-73
2023/03/24 08:48:21;;;;;;;2.00;1.10;;;18.80;99.90;;;;;;5053514;28;20471;-73
2023/03/24 08:50:49;;;;;;;1.70;1.20;;;19.00;99.90;;;;;;5037599;28;20447;-73
2023/03/24 08:53:16;;;;;;;1.93;1.60;;;18.80;99.90;;;;;;5053609;28;20530;-72
2023/03/24 08:55:44;;;;;;;1.97;1.40;;;17.90;99.90;;;;;;5053572;28;20918;-73
2023/03/24 08:58:15;;;;;;;3.40;1.50;;;17.10;99.90;;;;;;5053575;28;20492;-73
2023/03/24 09:00:43;;;;;;;3.83;2.27;;;17.10;99.90;;;;;;5053319;28;20435;-73
2023/03/24 09:03:16;;;;;;;2.30;1.50;;;16.90;99.90;;;;;;5062836;28;20439;-73
2023/03/24 09:05:46;;;;;;;1.33;1.17;;;16.90;99.90;;;;;;5062847;28;20420;-73
2023/03/24 09:08:15;;;;;;;3.20;1.43;;;17.40;99.90;;;;;;5066100;28;20485;-73
2023/03/24 09:10:45;;;;;;;5.80;2.00;;;18.00;99.90;;;;;;5069689;28;20462;-73
2023/03/24 09:13:12;;;;;;;7.17;3.40;;;18.10;99.90;;;;;;5074480;28;20459;-73
2023/03/24 09:15:39;;;;;;;1.30;1.00;;;17.80;99.90;;;;;;5057206;28;20478;-73
2023/03/24 09:18:07;;;;;;;4.17;1.50;;;18.30;99.90;;;;;;5053812;28;20522;-73
2023/03/24 09:20:33;;;;;;;2.93;1.30;;;18.80;99.90;;;;;;5053197;28;20443;-73
2023/03/24 09:23:02;;;;;;;1.60;1.10;;;18.10;99.90;;;;;;5052986;28;20450;-73
2023/03/24 09:25:29;;;;;;;2.60;1.30;;;18.40;99.90;;;;;;5052409;28;20534;-73
2023/03/24 09:27:56;;;;;;;3.13;1.80;;;19.10;99.90;;;;;;5052252;28;20489;-73
2023/03/24 09:30:23;;;;;;;4.80;2.00;;;18.80;99.90;;;;;;5052918;28;20436;-73
2023/03/24 09:32:50;;;;;;;13.50;2.47;;;18.40;99.90;;;;;;5053602;28;20428;-73
2023/03/24 09:35:17;;;;;;;3.20;1.50;;;18.20;99.90;;;;;;5052461;28;20440;-73
2023/03/24 09:37:45;;;;;;;5.10;1.87;;;18.10;99.90;;;;;;5052247;28;20958;-73
2023/03/24 09:40:20;;;;;;;1.87;1.37;;;18.40;99.90;;;;;;5051613;28;20454;-73
2023/03/24 09:42:53;;;;;;;5.63;1.40;;;18.50;99.90;;;;;;5052490;28;20497;-73
2023/03/24 09:45:24;;;;;;;2.53;1.47;;;18.20;99.90;;;;;;5052321;28;20519;-73
2023/03/24 09:47:56;;;;;;;2.00;1.53;;;18.50;99.90;;;;;;5053177;28;20547;-73
2023/03/24 09:50:25;;;;;;;1.43;1.10;;;18.90;99.90;;;;;;5052329;28;20783;-73
2023/03/24 09:52:56;;;;;;;2.00;1.23;;;19.50;99.90;;;;;;5051902;28;20444;-73
2023/03/24 09:55:26;;;;;;;2.03;1.70;;;18.60;99.90;;;;;;5051612;28;20520;-73
2023/03/24 09:57:57;;;;;;;8.30;1.80;;;18.40;99.90;;;;;;5050116;28;21022;-73
2023/03/24 10:00:27;;;;;;;6.00;1.97;;;19.40;99.90;;;;;;5051591;28;20444;-71
2023/03/24 10:03:00;;;;;;;3.50;1.23;;;20.30;99.90;;;;;;5052248;28;20470;-72
2023/03/24 10:05:35;;;;;;;4.07;1.70;;;21.00;99.90;;;;;;5052778;28;20443;-72
2023/03/24 10:08:14;;;;;;;1.73;1.13;;;20.60;99.90;;;;;;5066406;28;20463;-72
2023/03/24 10:10:53;;;;;;;3.80;1.80;;;20.00;99.90;;;;;;5052236;28;20545;-72
2023/03/24 10:13:26;;;;;;;19.23;3.90;;;19.60;99.90;;;;;;5052079;28;20428;-72
2023/03/24 10:16:04;;;;;;;3.30;1.50;;;19.20;99.90;;;;;;5055633;28;20436;-72
2023/03/24 10:18:37;;;;;;;5.97;1.87;;;18.30;99.90;;;;;;5060339;28;20524;-72
2023/03/24 10:21:11;;;;;;;2.60;2.00;;;17.90;99.90;;;;;;5051539;28;20446;-72
2023/03/24 10:23:46;;;;;;;1.53;1.23;;;17.90;99.90;;;;;;5051831;28;20433;-72
2023/03/24 10:26:34;;;;;;;3.00;1.30;;;17.30;99.90;;;;;;5051563;28;20459;-72
2023/03/24 10:29:15;;;;;;;4.57;1.80;;;16.50;99.90;;;;;;5051439;28;20654;-72
2023/03/24 10:31:47;;;;;;;7.43;1.73;;;16.10;99.90;;;;;;5052076;28;20454;-72
2023/03/24 10:34:14;;;;;;;4.60;1.93;;;16.20;99.90;;;;;;5052632;28;20482;-72
2023/03/24 10:36:42;;;;;;;7.00;2.60;;;16.30;99.90;;;;;;5052564;28;20475;-72
2023/03/24 10:39:14;;;;;;;2.80;1.40;;;16.00;99.90;;;;;;5050953;28;20544;-72
2023/03/24 10:41:43;;;;;;;3.63;2.73;;;16.30;99.90;;;;;;5049795;28;20475;-72
2023/03/24 10:44:13;;;;;;;11.90;2.03;;;16.20;99.90;;;;;;5051091;28;20432;-72
2023/03/24 10:46:48;;;;;;;2.63;1.20;;;16.30;99.90;;;;;;5050380;28;20463;-72
2023/03/24 10:49:18;;;;;;;4.30;1.83;;;16.60;99.90;;;;;;5050901;28;20522;-72
2023/03/24 10:51:48;;;;;;;8.17;1.60;;;17.60;99.90;;;;;;5050966;28;20853;-72
2023/03/24 10:54:18;;;;;;;2.03;1.00;;;17.50;99.90;;;;;;5051156;28;20511;-72
2023/03/24 10:56:52;;;;;;;3.53;1.30;;;16.70;99.90;;;;;;5051450;28;20467;-71
2023/03/24 10:59:27;;;;;;;3.80;1.30;;;16.00;99.90;;;;;;5051617;28;20490;-72
2023/03/24 11:02:00;;;;;;;3.23;1.20;;;15.60;99.90;;;;;;5051846;28;20431;-72
2023/03/24 11:04:29;;;;;;;3.30;1.00;;;15.30;99.90;;;;;;5062084;28;20415;-72
2023/03/24 11:07:02;;;;;;;4.53;1.13;;;15.60;99.90;;;;;;5052864;28;20487;-72
2023/03/24 11:09:38;;;;;;;2.33;0.90;;;16.40;99.90;;;;;;5065144;28;20428;-72
2023/03/24 11:12:22;;;;;;;4.60;1.63;;;17.20;99.90;;;;;;5052812;28;20537;-72
2023/03/24 11:14:52;;;;;;;2.90;1.50;;;18.50;99.90;;;;;;5050865;28;20448;-72
2023/03/24 11:17:22;;;;;;;7.63;1.80;;;19.70;99.90;;;;;;5050667;28;20727;-72
2023/03/24 11:19:53;;;;;;;3.60;1.70;;;20.70;99.90;;;;;;5050219;28;20484;-72
2023/03/24 11:22:21;;;;;;;2.50;1.37;;;20.60;99.20;;;;;;5050666;28;20479;-72
2023/03/24 11:24:51;;;;;;;3.80;2.03;;;19.70;99.90;;;;;;5049952;28;20454;-72
2023/03/24 11:27:20;;;;;;;3.67;1.50;;;20.20;99.90;;;;;;5050259;28;20477;-72
2023/03/24 11:29:52;;;;;;;6.03;1.40;;;20.50;99.50;;;;;;5050003;28;20447;-72
2023/03/24 11:32:23;;;;;;;5.30;1.83;;;20.10;99.90;;;;;;5050386;28;20431;-72
2023/03/24 11:34:59;;;;;;;1.57;1.10;;;20.70;98.90;;;;;;5050276;28;20959;-72
2023/03/24 11:37:34;;;;;;;1.83;1.27;;;20.20;98.80;;;;;;5062502;28;20545;-72
2023/03/24 11:40:21;;;;;;;2.13;1.43;;;19.40;99.50;;;;;;5051790;28;20435;-72
2023/03/24 11:42:53;;;;;;;3.13;1.20;;;19.40;99.60;;;;;;5050431;28;20443;-72
2023/03/24 11:45:26;;;;;;;1.13;0.90;;;18.60;99.90;;;;;;5050375;28;20458;-72
2023/03/24 11:47:57;;;;;;;2.60;1.33;;;18.00;99.90;;;;;;5050604;28;20513;-72
2023/03/24 11:50:28;;;;;;;5.90;1.40;;;18.90;99.90;;;;;;5050350;28;20551;-72
2023/03/24 11:53:02;;;;;;;1.80;1.40;;;19.90;99.90;;;;;;5050160;28;21195;-72
2023/03/24 11:55:37;;;;;;;9.10;1.80;;;19.80;99.90;;;;;;5050232;28;20486;-72
2023/03/24 11:58:15;;;;;;;2.07;1.47;;;18.80;99.90;;;;;;5049878;28;20529;-73
2023/03/24 12:00:46;;;;;;;8.63;1.63;;;18.70;99.90;;;;;;5057072;28;20420;-73
2023/03/24 12:03:44;;;;;;;2.70;1.77;;;19.10;99.90;;;;;;5055881;28;20428;-72
2023/03/24 12:06:31;;;;;;;4.23;1.23;;;20.30;99.20;;;;;;5052669;28;21249;-72
2023/03/24 12:09:10;;;;;;;2.30;1.50;;;20.70;96.10;;;;;;5054508;28;20487;-72
2023/03/24 12:11:55;;;;;;;2.90;1.90;;;19.60;95.80;;;;;;5054031;28;20450;-72
2023/03/24 12:14:32;;;;;;;2.40;1.70;;;19.00;96.40;;;;;;5056295;28;20427;-72
2023/03/24 12:17:08;;;;;;;1.93;1.20;;;18.40;97.80;;;;;;5054005;28;20467;-72
2023/03/24 12:20:00;;;;;;;3.27;1.60;;;18.00;99.10;;;;;;5053455;28;20574;-72
2023/03/24 12:22:39;;;;;;;4.57;1.57;;;17.80;98.90;;;;;;5054590;28;20443;-73
2023/03/24 12:25:28;;;;;;;1.70;1.50;;;17.30;99.80;;;;;;5053779;28;20538;-73
2023/03/24 12:28:07;;;;;;;5.40;1.20;;;17.20;99.90;;;;;;5053557;28;20451;-73
2023/03/24 12:30:42;;;;;;;2.03;1.83;;;17.30;99.90;;;;;;5055400;28;20459;-73
2023/03/24 12:33:30;;;;;;;2.43;2.17;;;17.40;99.90;;;;;;5054149;28;20907;-73
2023/03/24 12:36:14;;;;;;;2.70;1.33;;;16.90;99.90;;;;;;5053009;28;20543;-72
2023/03/24 12:38:56;;;;;;;6.67;1.80;;;17.10;99.90;;;;;;5052937;28;20568;-72
2023/03/24 12:41:41;;;;;;;2.70;1.60;;;17.60;99.90;;;;;;5053074;28;20506;-73
2023/03/24 12:44:34;;;;;;;3.17;1.27;;;17.70;99.90;;;;;;5052409;28;20493;-71
2023/03/24 12:47:14;;;;;;;2.30;0.90;;;17.50;99.90;;;;;;5051939;28;20481;-72
2023/03/24 12:49:59;;;;;;;4.40;1.53;;;17.50;99.50;;;;;;5051544;28;20569;-73
2023/03/24 12:52:49;;;;;;;5.30;2.13;;;17.50;99.90;;;;;;5052750;28;20475;-72
2023/03/24 12:55:19;;;;;;;2.23;2.03;;;17.20;99.90;;;;;;5053782;28;20552;-72
2023/03/24 12:57:51;;;;;;;1.00;0.70;;;16.90;99.90;;;;;;5064584;28;20471;-73
2023/03/24 13:00:22;;;;;;;4.00;1.87;;;17.80;99.80;;;;;;5056678;28;20487;-72
2023/03/24 13:02:54;;;;;;;9.43;1.50;;;19.40;98.90;;;;;;5051975;28;20481;-72
2023/03/24 13:05:27;;;;;;;5.00;1.47;;;20.40;97.60;;;;;;5052254;28;20476;-72
2023/03/24 13:07:58;;;;;;;2.03;1.60;;;19.50;97.60;;;;;;5051189;28;20617;-72